首页
METAR-TAF:

METAR-TAF

机场 :

Shaw Air Force Base

Sumter, 南卡罗来纳州, 美国

纬度: 33-58N, 经度: 080-29W, 海拔: 74米

当前天气观测

该预报发布于55分钟前的11:56 UTC
静风
温度 5°C
湿度 93%
气压
能見度: 16.1公里
散云层高于4700英尺
多云层高于5500英尺

METAR: KSSC 181156Z AUTO 00000KT 10SM SCT047 BKN055 05/04 M RMK AO2 SLPNO T00510041 10061 20044 $

时间: 07:51 (12:51 UTC)

预报

该预报发布于20小时和51分钟前的16:00 UTC
预报有效从16日的 16点(UTC)到 17日的 22点(UTC)
风速9节,风向西
能见度10公里或以上
少量云层高于25000英尺
成为
从 17日的 08点(UTC)到 17日的 09点(UTC)
风速6节,风向
能見度: 1908
天空无云

TAF: KSSC 161600Z 1616/1722 28009KT 9999 FEW250 QNH3006INS BECMG 1708/1709 36006KT 9999 SKC QNH3015INS TX14/1621Z TN02/1712Z LAST NO AMDS AFT 1619 NEXT 1908

超过4000个机场的气象观测和天气预报(METAR&TAF报告)。

可查询的气象台以黄色和红色小点在地图上表示。

将鼠标移到小点上方,可查看气象台名称。

然后点击查看天气观测和预报。

如需切换地图:点击带黑十字的绿色按钮放大地图;点击带横线的绿色按钮缩小地图;或者点击绿色箭头查看邻近地区的地图。


METAR-TAF: